sensor_id;sensor_type;location;lat;lon;timestamp;pressure;altitude;pressure_sealevel;temperature;humidity
6389;BME280;3227;42.654;23.360;2023-04-12T00:00:48;93527.19;;;10.56;73.75
6389;BME280;3227;42.654;23.360;2023-04-12T00:03:17;93530.75;;;10.47;74.84
6389;BME280;3227;42.654;23.360;2023-04-12T00:05:45;93525.44;;;10.59;74.18
6389;BME280;3227;42.654;23.360;2023-04-12T00:08:13;93525.38;;;10.62;73.99
6389;BME280;3227;42.654;23.360;2023-04-12T00:10:41;93522.59;;;10.76;73.56
6389;BME280;3227;42.654;23.360;2023-04-12T00:13:09;93515.75;;;10.78;73.41
6389;BME280;3227;42.654;23.360;2023-04-12T00:15:35;93514.84;;;10.79;73.16
6389;BME280;3227;42.654;23.360;2023-04-12T00:18:02;93521.06;;;10.64;73.56
6389;BME280;3227;42.654;23.360;2023-04-12T00:20:29;93510.00;;;10.62;74.04
6389;BME280;3227;42.654;23.360;2023-04-12T00:22:56;93516.78;;;10.66;73.66
6389;BME280;3227;42.654;23.360;2023-04-12T00:25:23;93477.09;;;10.40;74.22
6389;BME280;3227;42.654;23.360;2023-04-12T00:27:50;93503.13;;;10.64;74.17
6389;BME280;3227;42.654;23.360;2023-04-12T00:30:33;93509.91;;;10.68;73.49
6389;BME280;3227;42.654;23.360;2023-04-12T00:33:00;93509.97;;;10.65;73.97
6389;BME280;3227;42.654;23.360;2023-04-12T00:35:27;93499.97;;;10.50;74.36
6389;BME280;3227;42.654;23.360;2023-04-12T00:37:54;93502.56;;;10.47;74.46
6389;BME280;3227;42.654;23.360;2023-04-12T00:40:20;93509.19;;;10.60;73.52
6389;BME280;3227;42.654;23.360;2023-04-12T00:42:47;93488.84;;;10.53;74.21
6389;BME280;3227;42.654;23.360;2023-04-12T00:45:14;93510.00;;;10.62;73.69
6389;BME280;3227;42.654;23.360;2023-04-12T00:47:42;93504.09;;;10.60;73.42
6389;BME280;3227;42.654;23.360;2023-04-12T00:50:10;93493.84;;;10.60;73.90
6389;BME280;3227;42.654;23.360;2023-04-12T00:52:38;93498.00;;;10.66;73.44
6389;BME280;3227;42.654;23.360;2023-04-12T00:55:07;93494.59;;;10.65;73.50
6389;BME280;3227;42.654;23.360;2023-04-12T00:57:36;93495.53;;;10.61;73.80
6389;BME280;3227;42.654;23.360;2023-04-12T01:00:04;93499.72;;;10.65;73.71
6389;BME280;3227;42.654;23.360;2023-04-12T01:02:35;93493.84;;;10.60;73.45
6389;BME280;3227;42.654;23.360;2023-04-12T01:05:05;93497.25;;;10.59;73.84
6389;BME280;3227;42.654;23.360;2023-04-12T01:07:42;93496.31;;;10.63;73.25
6389;BME280;3227;42.654;23.360;2023-04-12T01:10:23;93496.31;;;10.65;73.92
6389;BME280;3227;42.654;23.360;2023-04-12T01:13:00;93493.91;;;10.56;74.08
6389;BME280;3227;42.654;23.360;2023-04-12T01:15:33;93495.59;;;10.57;73.96
6389;BME280;3227;42.654;23.360;2023-04-12T01:18:04;93488.13;;;10.43;74.71
6389;BME280;3227;42.654;23.360;2023-04-12T01:20:42;93483.75;;;10.51;74.04
6389;BME280;3227;42.654;23.360;2023-04-12T01:23:20;93484.31;;;10.67;73.78
6389;BME280;3227;42.654;23.360;2023-04-12T01:25:58;93490.28;;;10.67;73.43
6389;BME280;3227;42.654;23.360;2023-04-12T01:28:37;93484.31;;;10.68;73.47
6389;BME280;3227;42.654;23.360;2023-04-12T01:31:06;93464.03;;;10.55;73.65
6389;BME280;3227;42.654;23.360;2023-04-12T01:33:36;93480.78;;;10.74;72.81
6389;BME280;3227;42.654;23.360;2023-04-12T01:36:08;93478.38;;;10.63;73.82
6389;BME280;3227;42.654;23.360;2023-04-12T01:38:37;93488.69;;;10.62;73.99
6389;BME280;3227;42.654;23.360;2023-04-12T01:41:07;93488.72;;;10.59;73.65
6389;BME280;3227;42.654;23.360;2023-04-12T01:43:40;93410.97;;;10.12;74.09
6389;BME280;3227;42.654;23.360;2023-04-12T01:46:07;93487.19;;;10.49;74.64
6389;BME280;3227;42.654;23.360;2023-04-12T01:48:34;93485.41;;;10.54;74.18
6389;BME280;3227;42.654;23.360;2023-04-12T01:51:04;93484.69;;;10.46;74.00
6389;BME280;3227;42.654;23.360;2023-04-12T01:53:38;93484.59;;;10.50;74.25
6389;BME280;3227;42.654;23.360;2023-04-12T01:56:09;93479.63;;;10.41;74.10
6389;BME280;3227;42.654;23.360;2023-04-12T01:58:39;93475.47;;;10.34;74.42
6389;BME280;3227;42.654;23.360;2023-04-12T02:01:09;93473.78;;;10.33;75.04
6389;BME280;3227;42.654;23.360;2023-04-12T02:03:39;93438.28;;;10.10;74.94
6389;BME280;3227;42.654;23.360;2023-04-12T02:06:08;93476.34;;;10.33;75.20
6389;BME280;3227;42.654;23.360;2023-04-12T02:08:35;93474.56;;;10.38;75.01
6389;BME280;3227;42.654;23.360;2023-04-12T02:11:07;93450.22;;;10.11;75.14
6389;BME280;3227;42.654;23.360;2023-04-12T02:13:34;93481.38;;;10.39;74.96
6389;BME280;3227;42.654;23.360;2023-04-12T02:16:02;93480.50;;;10.40;74.94
6389;BME280;3227;42.654;23.360;2023-04-12T02:18:29;93473.69;;;10.39;74.72
6389;BME280;3227;42.654;23.360;2023-04-12T02:20:56;93406.72;;;10.10;74.57
6389;BME280;3227;42.654;23.360;2023-04-12T02:23:22;93468.34;;;10.53;74.42
6389;BME280;3227;42.654;23.360;2023-04-12T02:25:49;93464.34;;;10.37;74.09
6389;BME280;3227;42.654;23.360;2023-04-12T02:28:16;93474.47;;;10.44;73.87
6389;BME280;3227;42.654;23.360;2023-04-12T02:30:43;93471.97;;;10.40;74.61
6389;BME280;3227;42.654;23.360;2023-04-12T02:33:11;93474.59;;;10.37;74.72
6389;BME280;3227;42.654;23.360;2023-04-12T02:35:40;93465.25;;;10.34;74.66
6389;BME280;3227;42.654;23.360;2023-04-12T02:38:06;93481.47;;;10.33;74.46
6389;BME280;3227;42.654;23.360;2023-04-12T02:40:33;93469.53;;;10.32;74.80
6389;BME280;3227;42.654;23.360;2023-04-12T02:43:00;93476.38;;;10.30;74.90
6389;BME280;3227;42.654;23.360;2023-04-12T02:45:27;93465.38;;;10.25;75.23
6389;BME280;3227;42.654;23.360;2023-04-12T02:47:54;93455.97;;;10.28;75.30
6389;BME280;3227;42.654;23.360;2023-04-12T02:50:22;93462.53;;;10.43;74.59
6389;BME280;3227;42.654;23.360;2023-04-12T02:52:49;93459.09;;;10.44;74.84
6389;BME280;3227;42.654;23.360;2023-04-12T02:55:16;93464.16;;;10.47;73.99
6389;BME280;3227;42.654;23.360;2023-04-12T02:57:43;93461.66;;;10.46;74.20
6389;BME280;3227;42.654;23.360;2023-04-12T03:00:12;93464.28;;;10.41;74.02
6389;BME280;3227;42.654;23.360;2023-04-12T03:02:44;93460.09;;;10.36;74.85
6389;BME280;3227;42.654;23.360;2023-04-12T03:05:11;93471.09;;;10.41;74.61
6389;BME280;3227;42.654;23.360;2023-04-12T03:07:40;93464.44;;;10.30;74.66
6389;BME280;3227;42.654;23.360;2023-04-12T03:10:08;93469.50;;;10.35;75.09
6389;BME280;3227;42.654;23.360;2023-04-12T03:12:37;93465.19;;;10.37;74.73
6389;BME280;3227;42.654;23.360;2023-04-12T03:15:04;93455.81;;;10.36;75.52
6389;BME280;3227;42.654;23.360;2023-04-12T03:17:31;93459.97;;;10.43;75.00
6389;BME280;3227;42.654;23.360;2023-04-12T03:20:02;93460.81;;;10.45;75.57
6389;BME280;3227;42.654;23.360;2023-04-12T03:22:30;93467.47;;;10.54;75.37
6389;BME280;3227;42.654;23.360;2023-04-12T03:24:58;93472.66;;;10.51;75.78
6389;BME280;3227;42.654;23.360;2023-04-12T03:27:25;93465.69;;;10.57;76.35
6389;BME280;3227;42.654;23.360;2023-04-12T03:29:52;93470.81;;;10.57;76.74
6389;BME280;3227;42.654;23.360;2023-04-12T03:32:19;93469.00;;;10.62;76.58
6389;BME280;3227;42.654;23.360;2023-04-12T03:34:46;93462.13;;;10.67;76.62
6389;BME280;3227;42.654;23.360;2023-04-12T03:37:12;93473.91;;;10.78;76.46
6389;BME280;3227;42.654;23.360;2023-04-12T03:39:39;93462.84;;;10.74;76.44
6389;BME280;3227;42.654;23.360;2023-04-12T03:42:10;93466.28;;;10.72;77.04
6389;BME280;3227;42.654;23.360;2023-04-12T03:44:37;93469.75;;;10.71;76.62
6389;BME280;3227;42.654;23.360;2023-04-12T03:47:04;93465.66;;;10.60;77.48
6389;BME280;3227;42.654;23.360;2023-04-12T03:49:30;93469.84;;;10.63;77.54
6389;BME280;3227;42.654;23.360;2023-04-12T03:51:57;93470.72;;;10.63;76.98
6389;BME280;3227;42.654;23.360;2023-04-12T03:54:24;93473.38;;;10.59;76.74
6389;BME280;3227;42.654;23.360;2023-04-12T03:56:51;93473.47;;;10.53;76.07
6389;BME280;3227;42.654;23.360;2023-04-12T03:59:19;93477.78;;;10.49;76.30
6389;BME280;3227;42.654;23.360;2023-04-12T04:01:46;93473.50;;;10.51;75.93
6389;BME280;3227;42.654;23.360;2023-04-12T04:04:13;93472.78;;;10.43;76.04
6389;BME280;3227;42.654;23.360;2023-04-12T04:06:39;93466.22;;;10.25;76.85
6389;BME280;3227;42.654;23.360;2023-04-12T04:09:06;93482.09;;;10.47;76.30
6389;BME280;3227;42.654;23.360;2023-04-12T04:11:34;93480.38;;;10.48;76.37
6389;BME280;3227;42.654;23.360;2023-04-12T04:14:02;93478.47;;;10.59;75.48
6389;BME280;3227;42.654;23.360;2023-04-12T04:16:30;93478.34;;;10.68;75.55
6389;BME280;3227;42.654;23.360;2023-04-12T04:18:57;93482.56;;;10.71;75.55
6389;BME280;3227;42.654;23.360;2023-04-12T04:21:23;93494.56;;;10.68;75.02
6389;BME280;3227;42.654;23.360;2023-04-12T04:23:51;93503.78;;;10.79;74.83
6389;BME280;3227;42.654;23.360;2023-04-12T04:26:18;93510.69;;;10.72;75.09
6389;BME280;3227;42.654;23.360;2023-04-12T04:28:45;93516.94;;;10.57;75.38
6389;BME280;3227;42.654;23.360;2023-04-12T04:31:12;93509.38;;;10.48;76.08
6389;BME280;3227;42.654;23.360;2023-04-12T04:33:43;93517.88;;;10.52;76.40
6389;BME280;3227;42.654;23.360;2023-04-12T04:36:10;93525.59;;;10.50;76.41
6389;BME280;3227;42.654;23.360;2023-04-12T04:38:37;93525.47;;;10.56;76.54
6389;BME280;3227;42.654;23.360;2023-04-12T04:41:05;93530.66;;;10.53;76.03
6389;BME280;3227;42.654;23.360;2023-04-12T04:43:33;93523.16;;;10.43;76.39
6389;BME280;3227;42.654;23.360;2023-04-12T04:46:04;93531.66;;;10.45;76.02
6389;BME280;3227;42.654;23.360;2023-04-12T04:48:31;93546.06;;;10.50;75.92
6389;BME280;3227;42.654;23.360;2023-04-12T04:51:00;93508.66;;;10.42;75.80
6389;BME280;3227;42.654;23.360;2023-04-12T04:53:27;93531.50;;;10.54;75.47
6389;BME280;3227;42.654;23.360;2023-04-12T04:55:58;93519.53;;;10.54;74.84
6389;BME280;3227;42.654;23.360;2023-04-12T04:58:26;93464.56;;;10.23;74.47
6389;BME280;3227;42.654;23.360;2023-04-12T05:00:55;93542.38;;;10.68;74.52
6389;BME280;3227;42.654;23.360;2023-04-12T05:03:22;93540.66;;;10.68;74.02
6389;BME280;3227;42.654;23.360;2023-04-12T05:05:52;93545.06;;;10.60;73.80
6389;BME280;3227;42.654;23.360;2023-04-12T05:08:21;93547.47;;;10.70;73.79
6389;BME280;3227;42.654;23.360;2023-04-12T05:10:49;93531.50;;;10.54;73.13
6389;BME280;3227;42.654;23.360;2023-04-12T05:13:17;93553.44;;;10.70;73.47
6389;BME280;3227;42.654;23.360;2023-04-12T05:15:44;93558.59;;;10.68;72.55
6389;BME280;3227;42.654;23.360;2023-04-12T05:18:12;93565.44;;;10.68;72.30
6389;BME280;3227;42.654;23.360;2023-04-12T05:20:39;93530.75;;;10.47;72.65
6389;BME280;3227;42.654;23.360;2023-04-12T05:23:06;93562.19;;;10.57;71.42
6389;BME280;3227;42.654;23.360;2023-04-12T05:25:42;93568.09;;;10.62;71.57
6389;BME280;3227;42.654;23.360;2023-04-12T05:28:12;93562.84;;;10.70;70.24
6389;BME280;3227;42.654;23.360;2023-04-12T05:30:38;93534.13;;;10.51;70.46
6389;BME280;3227;42.654;23.360;2023-04-12T05:33:05;93572.19;;;10.72;69.85
6389;BME280;3227;42.654;23.360;2023-04-12T05:35:32;93565.91;;;10.90;69.38
6389;BME280;3227;42.654;23.360;2023-04-12T05:37:59;93560.06;;;10.83;68.35
6389;BME280;3227;42.654;23.360;2023-04-12T05:40:25;93560.91;;;10.82;68.94
6389;BME280;3227;42.654;23.360;2023-04-12T05:42:54;93568.53;;;10.87;67.79
6389;BME280;3227;42.654;23.360;2023-04-12T05:45:20;93569.50;;;10.80;67.66
6389;BME280;3227;42.654;23.360;2023-04-12T05:47:47;93570.34;;;10.80;67.46
6389;BME280;3227;42.654;23.360;2023-04-12T05:50:14;93580.56;;;10.82;66.75
6389;BME280;3227;42.654;23.360;2023-04-12T05:52:41;93568.72;;;10.75;66.61
6389;BME280;3227;42.654;23.360;2023-04-12T05:55:08;93576.66;;;10.61;65.70
6389;BME280;3227;42.654;23.360;2023-04-12T05:57:35;93569.88;;;10.55;66.11
6389;BME280;3227;42.654;23.360;2023-04-12T06:00:04;93569.81;;;10.61;65.64
6389;BME280;3227;42.654;23.360;2023-04-12T06:02:37;93579.09;;;10.68;65.51
6389;BME280;3227;42.654;23.360;2023-04-12T06:05:05;93582.50;;;10.69;65.18
6389;BME280;3227;42.654;23.360;2023-04-12T06:07:32;93580.13;;;10.55;64.60
6389;BME280;3227;42.654;23.360;2023-04-12T06:09:58;93590.97;;;10.71;64.70
6389;BME280;3227;42.654;23.360;2023-04-12T06:12:25;93590.38;;;10.55;64.83
6389;BME280;3227;42.654;23.360;2023-04-12T06:14:52;93579.41;;;10.47;64.77
6389;BME280;3227;42.654;23.360;2023-04-12T06:17:21;93595.69;;;10.43;64.70
6389;BME280;3227;42.654;23.360;2023-04-12T06:19:48;93600.72;;;10.48;65.44
6389;BME280;3227;42.654;23.360;2023-04-12T06:22:15;93612.75;;;10.44;65.93
6389;BME280;3227;42.654;23.360;2023-04-12T06:24:42;93607.56;;;10.47;66.58
6389;BME280;3227;42.654;23.360;2023-04-12T06:27:08;93610.97;;;10.49;66.24
6389;BME280;3227;42.654;23.360;2023-04-12T06:29:35;93612.63;;;10.53;67.75
6389;BME280;3227;42.654;23.360;2023-04-12T06:32:02;93611.81;;;10.48;68.38
6389;BME280;3227;42.654;23.360;2023-04-12T06:34:30;93605.06;;;10.46;68.95
6389;BME280;3227;42.654;23.360;2023-04-12T06:36:57;93602.25;;;10.61;69.06
6389;BME280;3227;42.654;23.360;2023-04-12T06:39:25;93608.16;;;10.66;68.81
6389;BME280;3227;42.654;23.360;2023-04-12T06:41:51;93610.56;;;10.75;68.69
6389;BME280;3227;42.654;23.360;2023-04-12T06:44:18;93600.94;;;10.89;66.94
6389;BME280;3227;42.654;23.360;2023-04-12T06:46:45;93600.03;;;10.95;66.26
6389;BME280;3227;42.654;23.360;2023-04-12T06:49:12;93596.50;;;11.00;65.88
6389;BME280;3227;42.654;23.360;2023-04-12T06:51:40;93604.09;;;11.05;65.06
6389;BME280;3227;42.654;23.360;2023-04-12T06:54:06;93593.00;;;11.04;64.39
6389;BME280;3227;42.654;23.360;2023-04-12T06:56:35;93597.19;;;11.12;64.22
6389;BME280;3227;42.654;23.360;2023-04-12T06:59:02;93581.97;;;11.01;64.63
6389;BME280;3227;42.654;23.360;2023-04-12T07:01:29;93590.63;;;10.94;63.77
6389;BME280;3227;42.654;23.360;2023-04-12T07:03:56;93595.53;;;11.07;63.67
6389;BME280;3227;42.654;23.360;2023-04-12T07:06:22;93572.53;;;11.03;63.48
6389;BME280;3227;42.654;23.360;2023-04-12T07:08:50;93570.50;;;11.20;62.52
6389;BME280;3227;42.654;23.360;2023-04-12T07:11:18;93582.28;;;11.32;62.93
6389;BME280;3227;42.654;23.360;2023-04-12T07:13:46;93584.59;;;11.90;64.14
6389;BME280;3227;42.654;23.360;2023-04-12T07:16:13;93592.28;;;12.32;60.60
6389;BME280;3227;42.654;23.360;2023-04-12T07:18:40;93538.91;;;12.44;59.84
6389;BME280;3227;42.654;23.360;2023-04-12T07:21:07;93580.50;;;12.95;58.48
6389;BME280;3227;42.654;23.360;2023-04-12T07:23:33;93575.28;;;13.00;56.27
6389;BME280;3227;42.654;23.360;2023-04-12T07:26:02;93584.28;;;13.18;56.43
6389;BME280;3227;42.654;23.360;2023-04-12T07:28:28;93559.13;;;13.29;55.91
6389;BME280;3227;42.654;23.360;2023-04-12T07:30:55;93565.28;;;13.23;55.14
6389;BME280;3227;42.654;23.360;2023-04-12T07:33:23;93572.97;;;13.25;55.63
6389;BME280;3227;42.654;23.360;2023-04-12T07:35:50;93577.56;;;13.11;54.63
6389;BME280;3227;42.654;23.360;2023-04-12T07:38:17;93573.16;;;13.17;55.40
6389;BME280;3227;42.654;23.360;2023-04-12T07:40:44;93577.38;;;13.20;54.88
6389;BME280;3227;42.654;23.360;2023-04-12T07:43:12;93574.03;;;13.16;55.84
6389;BME280;3227;42.654;23.360;2023-04-12T07:45:39;93585.88;;;13.23;54.40
6389;BME280;3227;42.654;23.360;2023-04-12T07:48:05;93571.13;;;13.30;54.99
6389;BME280;3227;42.654;23.360;2023-04-12T07:50:32;93575.31;;;13.34;55.48
6389;BME280;3227;42.654;23.360;2023-04-12T07:53:17;93574.38;;;13.37;54.28
6389;BME280;3227;42.654;23.360;2023-04-12T07:55:44;93565.66;;;13.42;54.01
6389;BME280;3227;42.654;23.360;2023-04-12T07:58:13;93564.16;;;13.66;52.95
6389;BME280;3227;42.654;23.360;2023-04-12T08:00:40;93554.25;;;13.51;51.36
6389;BME280;3227;42.654;23.360;2023-04-12T08:03:06;93564.75;;;13.43;51.36
6389;BME280;3227;42.654;23.360;2023-04-12T08:05:33;93548.56;;;13.06;50.20
6389;BME280;3227;42.654;23.360;2023-04-12T08:08:00;93563.25;;;13.01;49.17
6389;BME280;3227;42.654;23.360;2023-04-12T08:10:28;93524.50;;;12.74;49.32
6389;BME280;3227;42.654;23.360;2023-04-12T08:12:54;93550.00;;;12.82;49.84
6389;BME280;3227;42.654;23.360;2023-04-12T08:15:23;93540.13;;;12.65;51.02
6389;BME280;3227;42.654;23.360;2023-04-12T08:17:49;93545.63;;;12.50;52.03
6389;BME280;3227;42.654;23.360;2023-04-12T08:20:16;93546.00;;;12.70;51.27
6389;BME280;3227;42.654;23.360;2023-04-12T08:22:44;93542.69;;;12.65;50.23
6389;BME280;3227;42.654;23.360;2023-04-12T08:25:11;93507.28;;;12.42;48.82
6389;BME280;3227;42.654;23.360;2023-04-12T08:27:41;93552.69;;;12.77;48.65
6389;BME280;3227;42.654;23.360;2023-04-12T08:30:09;93564.94;;;12.68;47.63
6389;BME280;3227;42.654;23.360;2023-04-12T08:32:38;93558.41;;;12.88;46.38
6389;BME280;3227;42.654;23.360;2023-04-12T08:35:06;93535.25;;;12.90;45.94
6389;BME280;3227;42.654;23.360;2023-04-12T08:37:33;93554.13;;;12.89;45.35
6389;BME280;3227;42.654;23.360;2023-04-12T08:40:03;93554.22;;;13.20;47.70
6389;BME280;3227;42.654;23.360;2023-04-12T08:42:33;93548.66;;;13.35;45.59
6389;BME280;3227;42.654;23.360;2023-04-12T08:45:03;93550.97;;;13.46;45.59
6389;BME280;3227;42.654;23.360;2023-04-12T08:47:32;93509.63;;;13.21;44.93
6389;BME280;3227;42.654;23.360;2023-04-12T08:50:01;93560.00;;;13.60;43.72
6389;BME280;3227;42.654;23.360;2023-04-12T08:52:32;93557.63;;;13.53;42.80
6389;BME280;3227;42.654;23.360;2023-04-12T08:55:01;93549.03;;;13.54;42.76
6389;BME280;3227;42.654;23.360;2023-04-12T08:57:28;93553.13;;;13.61;43.10
6389;BME280;3227;42.654;23.360;2023-04-12T08:59:55;93569.50;;;13.58;43.89
6389;BME280;3227;42.654;23.360;2023-04-12T09:02:23;93558.31;;;13.59;42.27
6389;BME280;3227;42.654;23.360;2023-04-12T09:04:51;93548.16;;;13.55;43.17
6389;BME280;3227;42.654;23.360;2023-04-12T09:07:19;93550.47;;;13.33;43.12
6389;BME280;3227;42.654;23.360;2023-04-12T09:09:48;93549.31;;;13.43;43.89
6389;BME280;3227;42.654;23.360;2023-04-12T09:12:15;93547.09;;;13.62;44.13
6389;BME280;3227;42.654;23.360;2023-04-12T09:14:44;93540.72;;;13.44;42.47
6389;BME280;3227;42.654;23.360;2023-04-12T09:17:21;93536.19;;;13.21;43.19
6389;BME280;3227;42.654;23.360;2023-04-12T09:19:49;93536.78;;;13.31;44.06
6389;BME280;3227;42.654;23.360;2023-04-12T09:22:16;93535.59;;;13.43;43.66
6389;BME280;3227;42.654;23.360;2023-04-12T09:24:48;93537.72;;;13.59;41.24
6389;BME280;3227;42.654;23.360;2023-04-12T09:27:18;93533.41;;;13.60;39.39
6389;BME280;3227;42.654;23.360;2023-04-12T09:29:46;93517.06;;;13.62;40.54
6389;BME280;3227;42.654;23.360;2023-04-12T09:32:23;93528.19;;;13.92;39.94
6389;BME280;3227;42.654;23.360;2023-04-12T09:34:54;93530.03;;;13.89;40.05
6389;BME280;3227;42.654;23.360;2023-04-12T09:37:22;93522.56;;;13.80;40.58
6389;BME280;3227;42.654;23.360;2023-04-12T09:39:59;93516.00;;;13.69;40.50
6389;BME280;3227;42.654;23.360;2023-04-12T09:42:27;93515.66;;;13.82;38.62
6389;BME280;3227;42.654;23.360;2023-04-12T09:44:55;93517.72;;;14.00;38.63
6389;BME280;3227;42.654;23.360;2023-04-12T09:47:24;93511.72;;;14.27;37.46
6389;BME280;3227;42.654;23.360;2023-04-12T09:50:02;93467.41;;;14.16;37.33
6389;BME280;3227;42.654;23.360;2023-04-12T09:52:34;93498.75;;;14.58;36.87
6389;BME280;3227;42.654;23.360;2023-04-12T09:55:05;93481.69;;;14.26;36.06
6389;BME280;3227;42.654;23.360;2023-04-12T09:57:36;93489.59;;;14.20;38.29
6389;BME280;3227;42.654;23.360;2023-04-12T10:00:08;93483.00;;;14.41;38.86
6389;BME280;3227;42.654;23.360;2023-04-12T10:02:40;93477.44;;;14.53;38.98
6389;BME280;3227;42.654;23.360;2023-04-12T10:05:09;93462.91;;;14.51;39.41
6389;BME280;3227;42.654;23.360;2023-04-12T10:07:38;93481.06;;;14.48;37.95
6389;BME280;3227;42.654;23.360;2023-04-12T10:10:08;93440.63;;;14.22;35.85
6389;BME280;3227;42.654;23.360;2023-04-12T10:12:37;93476.59;;;14.53;34.57
6389;BME280;3227;42.654;23.360;2023-04-12T10:15:06;93473.66;;;14.35;33.71
6389;BME280;3227;42.654;23.360;2023-04-12T10:17:40;93450.34;;;14.12;31.65
6389;BME280;3227;42.654;23.360;2023-04-12T10:20:08;93446.50;;;14.25;31.36
6389;BME280;3227;42.654;23.360;2023-04-12T10:22:38;93454.56;;;14.42;31.38
6389;BME280;3227;42.654;23.360;2023-04-12T10:25:10;93456.06;;;14.50;32.13
6389;BME280;3227;42.654;23.360;2023-04-12T10:27:42;93458.03;;;14.68;30.57
6389;BME280;3227;42.654;23.360;2023-04-12T10:30:19;93460.81;;;14.62;31.56
6389;BME280;3227;42.654;23.360;2023-04-12T10:32:47;93457.22;;;14.41;30.56
6389;BME280;3227;42.654;23.360;2023-04-12T10:35:15;93473.59;;;14.10;30.78
6389;BME280;3227;42.654;23.360;2023-04-12T10:37:57;93428.19;;;14.08;32.53
6389;BME280;3227;42.654;23.360;2023-04-12T10:40:26;93445.47;;;14.31;31.96
6389;BME280;3227;42.654;23.360;2023-04-12T10:43:24;93435.59;;;14.17;32.87
6389;BME280;3227;42.654;23.360;2023-04-12T10:45:51;93441.88;;;14.08;31.75
6389;BME280;3227;42.654;23.360;2023-04-12T10:48:29;93441.44;;;13.66;30.14
6389;BME280;3227;42.654;23.360;2023-04-12T10:51:11;93417.03;;;13.50;31.64
6389;BME280;3227;42.654;23.360;2023-04-12T10:53:39;93433.06;;;13.88;31.65
6389;BME280;3227;42.654;23.360;2023-04-12T10:56:38;93428.38;;;14.28;30.52
6389;BME280;3227;42.654;23.360;2023-04-12T10:59:05;93425.72;;;14.31;28.44
6389;BME280;3227;42.654;23.360;2023-04-12T11:01:33;93381.56;;;14.16;28.82
6389;BME280;3227;42.654;23.360;2023-04-12T11:04:13;93417.84;;;14.62;30.01
6389;BME280;3227;42.654;23.360;2023-04-12T11:06:58;93401.22;;;14.71;28.75
6389;BME280;3227;42.654;23.360;2023-04-12T11:09:28;93411.75;;;14.65;28.60
6389;BME280;3227;42.654;23.360;2023-04-12T11:11:58;93416.13;;;14.63;28.69
6389;BME280;3227;42.654;23.360;2023-04-12T11:14:42;93420.75;;;14.78;28.07
6389;BME280;3227;42.654;23.360;2023-04-12T11:17:23;93394.75;;;14.84;27.47
6389;BME280;3227;42.654;23.360;2023-04-12T11:19:52;93399.44;;;14.73;26.81
6389;BME280;3227;42.654;23.360;2023-04-12T11:22:21;93352.28;;;14.44;27.38
6389;BME280;3227;42.654;23.360;2023-04-12T11:24:49;93417.03;;;14.87;27.94
6389;BME280;3227;42.654;23.360;2023-04-12T11:27:19;93417.66;;;14.93;29.31
6389;BME280;3227;42.654;23.360;2023-04-12T11:29:55;93404.66;;;14.96;28.28
6389;BME280;3227;42.654;23.360;2023-04-12T11:32:23;93432.13;;;14.97;28.53
6389;BME280;3227;42.654;23.360;2023-04-12T11:34:52;93392.34;;;15.04;28.26
6389;BME280;3227;42.654;23.360;2023-04-12T11:37:20;93419.69;;;15.08;27.93
6389;BME280;3227;42.654;23.360;2023-04-12T11:39:50;93423.16;;;15.07;28.22
6389;BME280;3227;42.654;23.360;2023-04-12T11:42:23;93412.66;;;15.13;28.31
6389;BME280;3227;42.654;23.360;2023-04-12T11:44:50;93416.00;;;15.15;27.68
6389;BME280;3227;42.654;23.360;2023-04-12T11:47:19;93399.44;;;15.22;27.42
6389;BME280;3227;42.654;23.360;2023-04-12T11:49:47;93411.53;;;15.20;27.63
6389;BME280;3227;42.654;23.360;2023-04-12T11:52:15;93391.00;;;15.17;27.11
6389;BME280;3227;42.654;23.360;2023-04-12T11:54:44;93414.34;;;15.14;27.62
6389;BME280;3227;42.654;23.360;2023-04-12T11:57:12;93251.81;;;14.18;27.64
6389;BME280;3227;42.654;23.360;2023-04-12T11:59:42;93402.06;;;14.96;27.31
6389;BME280;3227;42.654;23.360;2023-04-12T12:02:09;93418.97;;;15.05;28.13
6389;BME280;3227;42.654;23.360;2023-04-12T12:04:36;93418.53;;;15.17;28.52
6389;BME280;3227;42.654;23.360;2023-04-12T12:07:04;93400.50;;;15.15;28.80
6389;BME280;3227;42.654;23.360;2023-04-12T12:09:31;93405.28;;;15.03;28.98
6389;BME280;3227;42.654;23.360;2023-04-12T12:11:58;93341.84;;;14.74;28.75
6389;BME280;3227;42.654;23.360;2023-04-12T12:14:25;93415.81;;;15.21;28.52
6389;BME280;3227;42.654;23.360;2023-04-12T12:16:56;93390.03;;;15.20;28.66
6389;BME280;3227;42.654;23.360;2023-04-12T12:19:28;93388.91;;;15.04;28.35
6389;BME280;3227;42.654;23.360;2023-04-12T12:22:09;93398.16;;;15.09;29.29
6389;BME280;3227;42.654;23.360;2023-04-12T12:24:36;93398.59;;;15.22;28.89
6389;BME280;3227;42.654;23.360;2023-04-12T12:27:03;93403.13;;;15.39;28.96
6389;BME280;3227;42.654;23.360;2023-04-12T12:29:34;93393.25;;;15.50;28.96
6389;BME280;3227;42.654;23.360;2023-04-12T12:32:08;93399.97;;;15.55;29.00
6389;BME280;3227;42.654;23.360;2023-04-12T12:34:35;93399.97;;;15.55;28.36
6389;BME280;3227;42.654;23.360;2023-04-12T12:37:06;93400.41;;;15.18;28.43
6389;BME280;3227;42.654;23.360;2023-04-12T12:39:34;93411.50;;;14.97;28.29
6389;BME280;3227;42.654;23.360;2023-04-12T12:42:01;93395.75;;;15.05;29.06
6389;BME280;3227;42.654;23.360;2023-04-12T12:44:30;93399.63;;;15.16;28.95
6389;BME280;3227;42.654;23.360;2023-04-12T12:46:58;93357.97;;;15.04;29.80
6389;BME280;3227;42.654;23.360;2023-04-12T12:49:26;93412.16;;;15.27;28.75
6389;BME280;3227;42.654;23.360;2023-04-12T12:51:54;93406.72;;;15.35;29.03
6389;BME280;3227;42.654;23.360;2023-04-12T12:54:21;93412.09;;;15.29;28.09
6389;BME280;3227;42.654;23.360;2023-04-12T12:56:47;93413.66;;;15.33;28.00
6389;BME280;3227;42.654;23.360;2023-04-12T12:59:14;93417.16;;;15.32;27.61
6389;BME280;3227;42.654;23.360;2023-04-12T13:01:41;93413.47;;;15.39;28.61
6389;BME280;3227;42.654;23.360;2023-04-12T13:04:08;93392.34;;;15.28;28.11
6389;BME280;3227;42.654;23.360;2023-04-12T13:06:36;93410.38;;;15.29;28.46
6389;BME280;3227;42.654;23.360;2023-04-12T13:09:18;93416.75;;;15.19;28.19
6389;BME280;3227;42.654;23.360;2023-04-12T13:11:45;93414.38;;;15.13;28.84
6389;BME280;3227;42.654;23.360;2023-04-12T13:14:12;93395.34;;;15.15;28.30
6389;BME280;3227;42.654;23.360;2023-04-12T13:16:39;93403.31;;;15.09;28.84
6389;BME280;3227;42.654;23.360;2023-04-12T13:19:06;93413.75;;;15.06;30.26